Charlotte, North Carolina
Current Conditions -  °F | °C
As of 7:52 AM on Sunday 23 Nov 2014 (Local Time) from KCLT Reporting Station
Light Rain Light Rain  
Wind Chill: 43°   Ceiling: 800
Heat Index: 43°   Visibility: 5mi
Dew Point: 39°   Wind: 3mph
Humidity: 86%   Direction: 20°NNE
Pressure: 30.21"   Gusts: NA
Location:  35.22°N, 80.84°W
Report Text: KCLT 231252Z 02003KT 5SM -RA BR OVC008 06/04 A3021 RMK AO2 SLP230 P0009 T00610039
Loading
Personal Weather Stations






























Interactive Weather Map New forecast layout! Learn more

10-Day Weather Forecast

Advertisements
Track Severe Weather on mobile